Terminal Aerodrome Forecast
Issued by NWS Tallahassee, FL

Home | Current Version | Previous Version | Text Only | Print | Product List | Glossary On
Versions: 1 2 3 4 5 6 7 8 9 10 11 12 13 14
756
FTUS42 KTAE 112331
TAFTLH
TAF
KTLH 112331Z 1200/1224 24011KT P6SM SKC
     FM120900 23003KT 5SM BR SCT003 SCT025
     FM121400 26011G18KT P6SM SCT050 BKN250=

USA.gov is the U.S. government's official web portal to all federal, state and local government web resources and services.